createdAt,value
2022-12-11T00:02:06.623Z,8.67
2022-12-11T00:04:35.083Z,8.73
2022-12-11T00:07:04.626Z,9.57
2022-12-11T00:09:32.856Z,9.53
2022-12-11T00:12:02.910Z,8.73
2022-12-11T00:14:32.174Z,8.37
2022-12-11T00:17:00.728Z,9.57
2022-12-11T00:19:29.449Z,7.87
2022-12-11T00:21:58.052Z,7.77
2022-12-11T00:24:27.865Z,7.37
2022-12-11T00:26:56.190Z,6.67
2022-12-11T00:29:24.865Z,6.37
2022-12-11T00:31:53.291Z,6.43
2022-12-11T00:34:21.784Z,6.20
2022-12-11T00:36:50.281Z,7.17
2022-12-11T00:39:19.005Z,6.67
2022-12-11T00:41:48.858Z,7.20
2022-12-11T00:44:17.195Z,6.73
2022-12-11T00:46:45.695Z,7.30
2022-12-11T00:49:14.036Z,5.97
2022-12-11T00:51:42.997Z,6.20
2022-12-11T00:54:11.780Z,6.83
2022-12-11T00:56:40.089Z,6.20
2022-12-11T00:59:10.358Z,6.63
2022-12-11T01:01:39.102Z,6.77
2022-12-11T01:04:08.001Z,5.93
2022-12-11T01:06:36.221Z,6.57
2022-12-11T01:09:22.643Z,8.77
2022-12-11T01:11:51.042Z,7.50
2022-12-11T01:14:21.087Z,9.10
2022-12-11T01:16:49.887Z,7.20
2022-12-11T01:19:18.195Z,7.87
2022-12-11T01:21:46.741Z,7.53
2022-12-11T01:24:15.259Z,8.60
2022-12-11T01:26:43.993Z,8.60
2022-12-11T01:29:12.394Z,7.70
2022-12-11T01:31:43.292Z,11.30
2022-12-11T01:34:12.489Z,11.17
2022-12-11T01:36:41.568Z,11.10
2022-12-11T01:39:10.163Z,11.53
2022-12-11T01:41:38.946Z,13.00
2022-12-11T01:44:29.710Z,12.70
2022-12-11T01:46:59.993Z,14.57
2022-12-11T01:49:31.468Z,14.40
2022-12-11T01:52:05.861Z,14.50
2022-12-11T01:54:36.139Z,13.53
2022-12-11T01:57:09.492Z,18.00
2022-12-11T01:59:42.888Z,15.97
2022-12-11T02:02:20.405Z,17.93
2022-12-11T02:04:55.622Z,17.40
2022-12-11T02:07:25.269Z,15.57
2022-12-11T02:09:53.713Z,19.03
2022-12-11T02:12:32.801Z,12.73
2022-12-11T02:15:13.223Z,15.53
2022-12-11T02:17:52.194Z,14.33
2022-12-11T02:20:28.250Z,17.73
2022-12-11T02:23:45.477Z,35.03
2022-12-11T02:26:37.809Z,27.67
2022-12-11T02:29:14.885Z,25.40
2022-12-11T02:31:51.688Z,22.13
2022-12-11T02:34:28.283Z,20.90
2022-12-11T02:37:06.115Z,21.87
2022-12-11T02:39:40.035Z,18.87
2022-12-11T02:42:12.935Z,20.20
2022-12-11T02:44:44.993Z,19.20
2022-12-11T02:47:19.771Z,22.90
2022-12-11T02:49:51.668Z,16.63
2022-12-11T02:52:24.845Z,19.30
2022-12-11T02:54:57.970Z,16.70
2022-12-11T02:57:35.118Z,14.13
2022-12-11T03:00:09.805Z,14.33
2022-12-11T03:02:40.422Z,16.50
2022-12-11T03:05:11.105Z,17.60
2022-12-11T03:07:43.444Z,16.53
2022-12-11T03:10:16.882Z,15.80
2022-12-11T03:12:54.230Z,15.67
2022-12-11T03:15:33.441Z,14.57
2022-12-11T03:18:15.279Z,16.33
2022-12-11T03:20:48.985Z,15.73
2022-12-11T03:23:29.459Z,16.93
2022-12-11T03:26:02.543Z,16.57
2022-12-11T03:28:40.756Z,16.10
2022-12-11T03:31:16.135Z,14.90
2022-12-11T03:33:50.541Z,14.57
2022-12-11T03:36:27.383Z,15.17
2022-12-11T03:39:01.775Z,15.67
2022-12-11T03:41:37.191Z,15.27
2022-12-11T03:44:06.277Z,16.07
2022-12-11T03:46:39.796Z,17.90
2022-12-11T03:49:16.977Z,16.40
2022-12-11T03:51:49.867Z,16.50
2022-12-11T03:54:19.007Z,15.80
2022-12-11T03:56:50.636Z,14.83
2022-12-11T03:59:19.225Z,15.63
2022-12-11T04:01:49.362Z,14.30
2022-12-11T04:04:19.581Z,13.33
2022-12-11T04:06:49.590Z,13.07
2022-12-11T04:09:18.358Z,12.87
2022-12-11T04:11:47.240Z,14.23
2022-12-11T04:14:34.243Z,11.67
2022-12-11T04:17:04.635Z,13.27
2022-12-11T04:20:02.331Z,12.30
2022-12-11T04:22:48.584Z,11.80
2022-12-11T04:25:16.902Z,12.63
2022-12-11T04:27:51.355Z,11.50
2022-12-11T04:30:23.738Z,11.97
2022-12-11T04:32:56.434Z,12.77
2022-12-11T04:35:25.044Z,11.73
2022-12-11T04:37:54.597Z,10.90
2022-12-11T04:40:23.806Z,11.37
2022-12-11T04:42:52.993Z,11.23
2022-12-11T04:45:21.386Z,11.83
2022-12-11T04:47:50.399Z,11.47
2022-12-11T04:59:41.168Z,15.97
2022-12-11T05:02:09.758Z,14.73
2022-12-11T05:04:37.988Z,13.80
2022-12-11T05:07:06.435Z,12.80
2022-12-11T05:09:35.333Z,14.77
2022-12-11T05:12:03.949Z,13.37
2022-12-11T05:14:33.073Z,13.50
2022-12-11T05:17:02.886Z,15.00
2022-12-11T05:19:31.787Z,14.90
2022-12-11T05:22:00.473Z,15.57
2022-12-11T05:24:29.458Z,13.90
2022-12-11T05:26:58.261Z,12.37
2022-12-11T05:29:26.978Z,13.90
2022-12-11T05:31:55.502Z,14.83
2022-12-11T05:34:26.120Z,14.30
2022-12-11T05:36:54.540Z,14.43
2022-12-11T05:39:22.936Z,14.20
2022-12-11T05:41:51.551Z,14.37
2022-12-11T05:44:19.918Z,15.70
2022-12-11T05:46:48.380Z,12.60
2022-12-11T05:49:19.845Z,13.70
2022-12-11T05:51:49.834Z,14.23
2022-12-11T05:54:19.020Z,13.03
2022-12-11T05:56:47.663Z,13.33
2022-12-11T05:59:16.102Z,14.13
2022-12-11T06:01:45.516Z,14.83
2022-12-11T06:04:14.331Z,16.27
2022-12-11T06:06:44.006Z,16.30
2022-12-11T06:09:16.597Z,12.87
2022-12-11T06:11:45.195Z,13.20
2022-12-11T06:14:14.405Z,14.83
2022-12-11T06:16:43.273Z,13.47
2022-12-11T06:19:15.144Z,12.97
2022-12-11T06:21:44.191Z,11.40
2022-12-11T06:24:14.465Z,11.67
2022-12-11T06:26:42.697Z,12.07
2022-12-11T06:29:13.213Z,11.90
2022-12-11T06:31:42.176Z,12.27
2022-12-11T06:34:13.638Z,11.50
2022-12-11T06:36:42.477Z,10.97
2022-12-11T06:39:12.881Z,10.50
2022-12-11T06:41:42.843Z,9.57
2022-12-11T06:44:11.645Z,13.47
2022-12-11T06:46:40.051Z,11.63
2022-12-11T06:49:08.266Z,11.27
2022-12-11T06:51:37.107Z,11.23
2022-12-11T06:54:05.737Z,12.43
2022-12-11T06:56:36.016Z,14.93
2022-12-11T06:59:07.432Z,10.47
2022-12-11T07:01:36.692Z,12.00
2022-12-11T07:04:05.636Z,10.60
2022-12-11T07:06:34.052Z,10.20
2022-12-11T07:09:06.153Z,11.23
2022-12-11T07:11:34.463Z,11.10
2022-12-11T07:14:03.109Z,10.53
2022-12-11T07:16:33.444Z,10.97
2022-12-11T07:19:01.861Z,9.93
2022-12-11T07:21:30.279Z,9.40
2022-12-11T07:23:59.017Z,8.60
2022-12-11T07:26:28.268Z,8.63
2022-12-11T07:40:18.469Z,10.83
2022-12-11T08:07:18.675Z,12.30
2022-12-11T08:09:46.859Z,11.70
2022-12-11T08:12:15.489Z,11.97
2022-12-11T08:14:43.614Z,11.43
2022-12-11T08:17:12.039Z,10.77
2022-12-11T08:19:40.142Z,14.60
2022-12-11T08:22:09.348Z,12.13
2022-12-11T08:24:38.926Z,11.87
2022-12-11T08:27:07.783Z,12.13
2022-12-11T08:29:37.291Z,12.07
2022-12-11T08:32:11.893Z,11.23
2022-12-11T08:34:41.090Z,9.80
2022-12-11T08:37:09.412Z,15.50
2022-12-11T08:39:39.150Z,13.43
2022-12-11T08:42:08.730Z,10.97
2022-12-11T08:44:37.389Z,12.87
2022-12-11T08:47:05.622Z,10.77
2022-12-11T08:49:34.759Z,12.30
2022-12-11T08:52:04.254Z,13.23
2022-12-11T08:54:33.535Z,11.47
2022-12-11T08:57:03.005Z,11.70
2022-12-11T08:59:31.720Z,11.33
2022-12-11T09:07:19.383Z,10.23
2022-12-11T09:09:47.778Z,9.83
2022-12-11T09:12:18.144Z,12.23
2022-12-11T09:14:47.693Z,11.03
2022-12-11T09:17:16.574Z,12.60
2022-12-11T09:19:45.167Z,11.63
2022-12-11T09:22:13.838Z,8.70
2022-12-11T09:24:42.457Z,9.63
2022-12-11T09:27:10.616Z,11.27
2022-12-11T09:29:42.637Z,12.60
2022-12-11T09:32:10.835Z,13.63
2022-12-11T09:34:39.266Z,9.40
2022-12-11T09:37:07.511Z,8.93
2022-12-11T09:39:35.944Z,8.57
2022-12-11T09:42:15.296Z,12.13
2022-12-11T09:44:49.959Z,16.10
2022-12-11T09:47:26.009Z,15.63
2022-12-11T09:50:12.074Z,10.50
2022-12-11T09:52:55.463Z,7.73
2022-12-11T09:55:28.451Z,8.90
2022-12-11T09:58:11.352Z,8.00
2022-12-11T10:00:48.435Z,8.40
2022-12-11T10:04:04.096Z,8.23
2022-12-11T10:06:42.868Z,7.90
2022-12-11T10:09:27.802Z,9.07
2022-12-11T10:12:17.115Z,9.87
2022-12-11T10:15:13.436Z,8.10
2022-12-11T10:17:45.699Z,8.40
2022-12-11T10:20:27.187Z,8.97
2022-12-11T10:22:58.247Z,9.07
2022-12-11T10:25:31.749Z,8.80
2022-12-11T10:28:06.481Z,9.10
2022-12-11T10:30:41.944Z,13.27
2022-12-11T10:33:23.202Z,11.37
2022-12-11T10:35:54.719Z,9.63
2022-12-11T10:38:29.443Z,9.27
2022-12-11T10:41:02.458Z,9.47
2022-12-11T10:43:37.946Z,9.70
2022-12-11T10:46:09.339Z,11.60
2022-12-11T10:48:47.840Z,10.33
2022-12-11T10:51:16.914Z,8.17
2022-12-11T10:53:51.402Z,7.70
2022-12-11T10:56:29.204Z,7.80
2022-12-11T10:59:00.112Z,9.07
2022-12-11T11:01:32.332Z,10.87
2022-12-11T11:04:07.414Z,9.00
2022-12-11T11:06:36.652Z,9.87
2022-12-11T11:09:06.417Z,9.53
2022-12-11T11:11:38.579Z,10.53
2022-12-11T11:14:18.132Z,7.90
2022-12-11T11:16:51.062Z,9.03
2022-12-11T11:19:26.184Z,11.77
2022-12-11T11:21:59.580Z,7.87
2022-12-11T11:24:33.771Z,7.43
2022-12-11T11:27:13.129Z,7.37
2022-12-11T11:29:46.605Z,11.83
2022-12-11T11:32:22.860Z,14.90
2022-12-11T11:34:52.800Z,32.87
2022-12-11T11:37:34.641Z,8.63
2022-12-11T11:40:13.116Z,8.63
2022-12-11T11:42:53.399Z,14.33
2022-12-11T11:45:29.787Z,18.13
2022-12-11T11:48:12.356Z,9.07
2022-12-11T11:50:50.440Z,7.90
2022-12-11T11:53:27.975Z,6.47
2022-12-11T11:56:08.007Z,9.53
2022-12-11T11:58:44.397Z,7.33
2022-12-11T12:01:18.261Z,9.27
2022-12-11T12:03:48.864Z,8.80
2022-12-11T12:06:33.408Z,9.70
2022-12-11T12:09:19.459Z,8.67
2022-12-11T12:11:58.896Z,9.80
2022-12-11T12:14:52.149Z,7.40
2022-12-11T12:17:38.148Z,12.30
2022-12-11T12:20:25.429Z,9.27
2022-12-11T12:23:16.533Z,23.93
2022-12-11T12:25:54.081Z,8.30
2022-12-11T12:28:37.395Z,6.87
2022-12-11T12:31:26.152Z,8.17
2022-12-11T12:34:06.747Z,9.23
2022-12-11T12:36:47.152Z,8.97
2022-12-11T12:39:33.615Z,7.87
2022-12-11T12:42:13.679Z,9.17
2022-12-11T12:44:58.180Z,7.63
2022-12-11T12:47:31.992Z,11.67
2022-12-11T12:50:03.440Z,9.90
2022-12-11T12:52:37.392Z,8.23
2022-12-11T12:55:23.848Z,9.93
2022-12-11T12:57:57.440Z,8.67
2022-12-11T13:00:36.481Z,11.33
2022-12-11T13:03:17.185Z,10.73
2022-12-11T13:05:57.793Z,12.83
2022-12-11T13:08:28.703Z,12.73
2022-12-11T13:11:08.132Z,20.53
2022-12-11T13:13:40.714Z,12.60
2022-12-11T13:16:27.652Z,9.03
2022-12-11T13:18:57.096Z,10.13
2022-12-11T13:21:32.453Z,7.77
2022-12-11T13:24:18.116Z,11.43
2022-12-11T13:26:49.473Z,15.50
2022-12-11T13:29:36.784Z,9.93
2022-12-11T13:32:24.684Z,15.83
2022-12-11T13:34:57.524Z,12.30
2022-12-11T13:37:32.024Z,11.07
2022-12-11T13:40:02.164Z,15.87
2022-12-11T13:42:38.787Z,13.77
2022-12-11T13:45:19.017Z,10.10
2022-12-11T13:47:48.205Z,12.40
2022-12-11T13:50:25.444Z,12.43
2022-12-11T13:52:59.672Z,21.97
2022-12-11T13:55:32.354Z,8.63
2022-12-11T13:58:02.913Z,13.63
2022-12-11T14:00:33.386Z,9.33
2022-12-11T14:03:07.546Z,11.33
2022-12-11T14:05:38.205Z,9.00
2022-12-11T14:08:10.240Z,7.43
2022-12-11T14:10:40.648Z,8.30
2022-12-11T14:13:26.368Z,8.73
2022-12-11T14:15:56.354Z,13.20
2022-12-11T14:18:30.315Z,8.90
2022-12-11T14:21:02.496Z,13.27
2022-12-11T14:23:32.802Z,9.23
2022-12-11T14:26:04.011Z,6.87
2022-12-11T14:28:39.792Z,7.40
2022-12-11T14:31:08.792Z,8.67
2022-12-11T14:33:42.152Z,9.40
2022-12-11T14:36:12.412Z,11.40
2022-12-11T14:38:48.936Z,9.80
2022-12-11T14:41:25.116Z,8.80
2022-12-11T14:44:00.358Z,16.97
2022-12-11T14:46:40.600Z,16.17
2022-12-11T14:49:18.390Z,13.63
2022-12-11T14:51:49.622Z,14.33
2022-12-11T14:54:28.716Z,13.03
2022-12-11T14:57:00.072Z,14.97
2022-12-11T14:59:33.313Z,15.00
2022-12-11T15:02:05.557Z,18.00
2022-12-11T15:04:35.378Z,14.87
2022-12-11T15:07:03.456Z,14.87
2022-12-11T15:09:41.089Z,15.57
2022-12-11T15:12:15.799Z,14.57
2022-12-11T15:14:53.998Z,15.43
2022-12-11T15:17:25.661Z,16.13
2022-12-11T15:19:58.475Z,15.17
2022-12-11T15:22:33.280Z,16.53
2022-12-11T15:25:02.557Z,18.13
2022-12-11T15:27:37.120Z,16.00
2022-12-11T15:30:28.935Z,13.60
2022-12-11T15:33:21.982Z,17.70
2022-12-11T15:36:23.286Z,17.43
2022-12-11T15:38:51.645Z,18.03
2022-12-11T15:41:24.279Z,15.63
2022-12-11T15:43:58.656Z,15.13
2022-12-11T15:46:29.178Z,15.33
2022-12-11T15:48:58.336Z,16.57
2022-12-11T15:51:27.456Z,15.70
2022-12-11T15:53:56.135Z,18.47
2022-12-11T15:56:24.249Z,17.00
2022-12-11T15:58:53.781Z,15.53
2022-12-11T16:01:21.993Z,18.40
2022-12-11T16:04:04.686Z,15.52
2022-12-11T16:06:34.055Z,15.60
2022-12-11T16:09:04.380Z,16.73
2022-12-11T16:11:32.843Z,14.83
2022-12-11T16:14:04.173Z,15.43
2022-12-11T16:16:33.043Z,18.53
2022-12-11T16:19:03.192Z,18.93
2022-12-11T16:21:31.319Z,24.27
2022-12-11T16:23:59.454Z,19.87
2022-12-11T16:26:28.420Z,17.63
2022-12-11T16:28:56.964Z,17.73
2022-12-11T16:31:25.566Z,18.70
2022-12-11T16:33:54.786Z,22.50
2022-12-11T16:36:25.173Z,18.53
2022-12-11T16:38:54.315Z,20.63
2022-12-11T16:41:24.822Z,18.17
2022-12-11T16:43:54.757Z,20.53
2022-12-11T16:46:25.147Z,25.07
2022-12-11T16:48:53.517Z,22.57
2022-12-11T16:51:21.633Z,23.07
2022-12-11T16:53:51.180Z,26.63
2022-12-11T16:56:19.647Z,24.67
2022-12-11T16:58:48.439Z,20.93
2022-12-11T17:01:17.581Z,18.07
2022-12-11T17:03:46.008Z,16.47
2022-12-11T17:06:18.904Z,20.33
2022-12-11T17:08:48.692Z,28.13
2022-12-11T17:11:22.487Z,16.60
2022-12-11T17:14:00.608Z,18.26
2022-12-11T17:16:30.867Z,17.47
2022-12-11T17:18:59.470Z,21.93
2022-12-11T17:21:27.801Z,21.80
2022-12-11T17:23:56.825Z,22.53
2022-12-11T17:26:28.472Z,18.77
2022-12-11T17:28:59.199Z,18.13
2022-12-11T17:31:27.536Z,19.47
2022-12-11T17:33:57.305Z,20.10
2022-12-11T17:36:25.502Z,20.20
2022-12-11T17:38:55.250Z,20.13
2022-12-11T17:41:23.602Z,19.07
2022-12-11T17:43:55.345Z,21.30
2022-12-11T17:46:23.491Z,19.33
2022-12-11T17:48:52.271Z,24.67
2022-12-11T17:51:24.454Z,21.13
2022-12-11T17:53:56.374Z,20.33
2022-12-11T17:56:25.947Z,19.80
2022-12-11T17:58:55.378Z,20.77
2022-12-11T18:01:23.916Z,19.17
2022-12-11T18:03:53.105Z,21.67
2022-12-11T18:06:22.956Z,20.87
2022-12-11T18:08:51.100Z,18.37
2022-12-11T18:11:22.832Z,20.20
2022-12-11T18:13:53.009Z,21.80
2022-12-11T18:16:26.594Z,20.00
2022-12-11T18:18:57.003Z,20.93
2022-12-11T18:21:29.598Z,18.53
2022-12-11T18:23:59.356Z,19.83
2022-12-11T18:26:28.335Z,19.13
2022-12-11T18:28:57.274Z,22.07
2022-12-11T18:31:27.986Z,20.13
2022-12-11T18:33:56.850Z,18.93
2022-12-11T18:36:25.310Z,25.53
2022-12-11T18:38:53.562Z,28.50
2022-12-11T18:41:22.013Z,24.97
2022-12-11T18:43:50.311Z,24.77
2022-12-11T18:46:21.887Z,19.60
2022-12-11T18:48:51.727Z,19.93
2022-12-11T18:51:25.147Z,20.20
2022-12-11T18:53:55.107Z,27.57
2022-12-11T18:56:25.153Z,23.87
2022-12-11T18:58:53.431Z,21.77
2022-12-11T19:01:25.615Z,23.90
2022-12-11T19:04:02.733Z,42.83
2022-12-11T19:06:35.754Z,27.53
2022-12-11T19:09:07.098Z,25.17
2022-12-11T19:11:40.975Z,27.47
2022-12-11T19:14:10.832Z,20.90
2022-12-11T19:16:43.206Z,26.17
2022-12-11T19:19:18.127Z,21.60
2022-12-11T19:21:49.163Z,21.47
2022-12-11T19:24:21.107Z,22.50
2022-12-11T19:26:50.695Z,25.93
2022-12-11T19:29:23.281Z,22.37
2022-12-11T19:31:52.208Z,19.83
2022-12-11T19:34:22.364Z,26.83
2022-12-11T19:36:51.442Z,38.57
2022-12-11T19:39:21.081Z,47.60
2022-12-11T19:41:50.660Z,51.17
2022-12-11T19:44:18.812Z,42.63
2022-12-11T19:46:47.884Z,45.40
2022-12-11T19:49:17.097Z,39.67
2022-12-11T19:51:48.043Z,39.57
2022-12-11T19:54:18.079Z,33.60
2022-12-11T19:56:46.962Z,28.50
2022-12-11T19:59:18.140Z,33.53
2022-12-11T20:01:50.130Z,29.63
2022-12-11T20:04:19.954Z,32.37
2022-12-11T20:06:52.319Z,31.37
2022-12-11T20:09:21.196Z,38.50
2022-12-11T20:11:49.488Z,33.03
2022-12-11T20:14:24.191Z,33.57
2022-12-11T20:17:13.928Z,31.27
2022-12-11T20:19:44.892Z,25.63
2022-12-11T20:22:14.379Z,31.93
2022-12-11T20:24:42.826Z,31.70
2022-12-11T20:27:12.586Z,22.37
2022-12-11T20:29:40.804Z,18.53
2022-12-11T20:32:11.739Z,20.37
2022-12-11T20:34:40.007Z,21.50
2022-12-11T20:37:08.790Z,37.40
2022-12-11T20:39:39.130Z,34.87
2022-12-11T20:42:26.471Z,22.80
2022-12-11T20:44:55.091Z,23.43
2022-12-11T20:47:23.242Z,21.13
2022-12-11T20:49:52.601Z,22.87
2022-12-11T20:52:22.482Z,23.60
2022-12-11T20:54:52.652Z,25.23
2022-12-11T20:57:20.983Z,26.10
2022-12-11T20:59:50.728Z,67.47
2022-12-11T21:02:19.908Z,65.40
2022-12-11T21:04:48.714Z,45.30
2022-12-11T21:07:17.486Z,43.90
2022-12-11T21:09:46.659Z,46.67
2022-12-11T21:12:16.340Z,47.10
2022-12-11T21:14:45.594Z,51.07
2022-12-11T21:17:14.330Z,46.10
2022-12-11T21:19:42.544Z,44.07
2022-12-11T21:22:11.203Z,28.57
2022-12-11T21:24:39.893Z,22.73
2022-12-11T21:27:09.631Z,18.60
2022-12-11T21:29:39.092Z,17.70
2022-12-11T21:32:07.443Z,18.53
2022-12-11T21:34:37.909Z,13.43
2022-12-11T21:37:06.707Z,15.17
2022-12-11T21:39:39.267Z,18.63
2022-12-11T21:42:07.627Z,16.33
2022-12-11T21:47:27.990Z,16.83
2022-12-11T21:49:56.108Z,16.93
2022-12-11T21:52:24.239Z,16.60
2022-12-11T21:54:52.351Z,16.93
2022-12-11T21:57:26.129Z,15.27
2022-12-11T21:59:55.011Z,15.37
2022-12-11T22:02:23.865Z,17.23
2022-12-11T22:04:53.415Z,16.23
2022-12-11T22:07:23.378Z,19.53
2022-12-11T22:09:51.523Z,17.77
2022-12-11T22:12:30.057Z,19.10
2022-12-11T22:14:58.378Z,15.27
2022-12-11T22:17:26.751Z,17.60
2022-12-11T22:19:58.220Z,19.70
2022-12-11T22:22:26.671Z,17.07
2022-12-11T22:24:55.909Z,17.37
2022-12-11T22:27:24.431Z,15.67
2022-12-11T22:29:55.370Z,14.37
2022-12-11T22:32:23.468Z,17.27
2022-12-11T22:34:52.044Z,15.30
2022-12-11T22:37:22.020Z,14.67
2022-12-11T22:39:50.322Z,16.37
2022-12-11T22:42:18.774Z,16.77
2022-12-11T22:44:47.407Z,16.10
2022-12-11T22:47:18.227Z,15.67
2022-12-11T22:49:46.553Z,14.07
2022-12-11T22:52:15.075Z,13.03
2022-12-11T22:54:44.854Z,15.70
2022-12-11T22:57:14.687Z,15.90
2022-12-11T22:59:43.028Z,23.73
2022-12-11T23:02:11.267Z,14.60
2022-12-11T23:04:40.266Z,13.20
2022-12-11T23:07:10.044Z,15.17
2022-12-11T23:09:38.589Z,18.77
2022-12-11T23:12:10.804Z,15.33
2022-12-11T23:14:39.923Z,15.87
2022-12-11T23:17:08.053Z,13.70
2022-12-11T23:19:37.258Z,13.60
2022-12-11T23:22:05.604Z,11.90
2022-12-11T23:24:34.138Z,12.63
2022-12-11T23:27:02.705Z,19.17
2022-12-11T23:29:32.473Z,14.50
2022-12-11T23:32:00.984Z,10.03
2022-12-11T23:34:30.528Z,9.17
2022-12-11T23:36:58.739Z,12.50
2022-12-11T23:39:27.218Z,9.93
2022-12-11T23:41:55.350Z,8.73
2022-12-11T23:44:23.583Z,9.43
2022-12-11T23:46:53.287Z,8.77
2022-12-11T23:49:21.896Z,9.23
2022-12-11T23:51:50.399Z,8.90
2022-12-11T23:54:19.524Z,8.73
2022-12-11T23:56:48.004Z,9.83
2022-12-11T23:59:16.982Z,12.43
